Time;durP1;ratioP1;P1;durP2;ratioP2;P2;SDS_P1;SDS_P2;PMS_P1;PMS_P2;Temp;Humidity;BMP_temperature;BMP_pressure;BME280_temperature;BME280_humidity;BME280_pressure;Samples;Min_cycle;Max_cycle;Signal;HPM_P1;HPM_P2
2021/03/19 00:01:09;;;;;;;13.67;10.67;;;0.70;99.90;;;;;;5031316;28;20177;-71
2021/03/19 00:03:35;;;;;;;16.17;12.27;;;0.70;99.90;;;;;;5031244;28;20198;-71
2021/03/19 00:06:02;;;;;;;17.03;12.17;;;0.80;99.90;;;;;;5031148;28;20170;-71
2021/03/19 00:08:28;;;;;;;15.90;12.27;;;0.80;99.90;;;;;;5031386;28;20210;-71
2021/03/19 00:10:54;;;;;;;17.00;11.93;;;0.70;99.90;;;;;;5031529;28;20596;-71
2021/03/19 00:13:20;;;;;;;15.37;11.47;;;0.90;99.90;;;;;;5032712;28;20177;-71
2021/03/19 00:15:46;;;;;;;12.97;10.63;;;0.90;99.90;;;;;;5022865;28;20659;-72
2021/03/19 00:18:14;;;;;;;14.43;11.17;;;0.90;99.90;;;;;;5030982;28;20197;-72
2021/03/19 00:20:44;;;;;;;13.33;10.90;;;0.90;99.90;;;;;;5031559;28;20209;-72
2021/03/19 00:23:10;;;;;;;12.67;10.50;;;0.90;99.90;;;;;;5035099;28;20190;-71
2021/03/19 00:25:37;;;;;;;13.10;10.90;;;0.90;99.90;;;;;;5033442;28;20540;-71
2021/03/19 00:28:04;;;;;;;15.57;10.63;;;0.90;99.90;;;;;;5034660;28;20198;-71
2021/03/19 00:30:31;;;;;;;12.83;10.47;;;0.90;99.90;;;;;;5034742;28;20220;-71
2021/03/19 00:32:57;;;;;;;14.20;10.60;;;0.90;99.90;;;;;;5034877;28;20174;-72
2021/03/19 00:35:23;;;;;;;13.40;11.47;;;0.80;99.90;;;;;;5034615;28;20187;-72
2021/03/19 00:37:48;;;;;;;13.37;10.43;;;0.80;99.90;;;;;;5034102;28;20214;-71
2021/03/19 00:40:15;;;;;;;12.50;10.40;;;0.80;99.90;;;;;;5035992;28;20555;-71
2021/03/19 00:42:43;;;;;;;13.13;10.87;;;0.70;99.90;;;;;;5035736;28;20679;-71
2021/03/19 00:45:12;;;;;;;12.23;9.87;;;0.70;99.90;;;;;;5035885;28;20184;-71
2021/03/19 00:47:38;;;;;;;14.60;10.60;;;0.70;99.90;;;;;;5036050;28;20193;-71
2021/03/19 00:50:07;;;;;;;11.43;9.30;;;0.60;99.90;;;;;;5034575;28;20712;-71
2021/03/19 00:52:33;;;;;;;14.20;11.00;;;0.60;99.90;;;;;;5035709;28;20182;-72
2021/03/19 00:54:59;;;;;;;15.03;11.00;;;0.70;99.90;;;;;;5034112;28;20214;-72
2021/03/19 00:57:24;;;;;;;14.27;10.70;;;0.70;99.90;;;;;;5032422;28;20273;-72
2021/03/19 00:59:50;;;;;;;16.00;10.27;;;0.70;99.90;;;;;;5033443;28;20649;-72
2021/03/19 01:02:16;;;;;;;15.97;11.57;;;0.70;99.90;;;;;;5033503;28;20230;-72
2021/03/19 01:04:42;;;;;;;15.23;10.63;;;0.70;99.90;;;;;;5033721;28;20667;-72
2021/03/19 01:07:07;;;;;;;19.20;10.80;;;0.70;99.90;;;;;;5033637;28;20181;-72
2021/03/19 01:09:33;;;;;;;14.77;10.63;;;0.70;99.90;;;;;;5033308;28;20263;-71
2021/03/19 01:11:59;;;;;;;14.87;10.43;;;0.70;99.90;;;;;;5034182;28;20637;-72
2021/03/19 01:14:24;;;;;;;16.10;11.13;;;0.70;99.90;;;;;;5028048;28;20863;-71
2021/03/19 01:16:50;;;;;;;12.67;10.13;;;0.60;99.90;;;;;;5031002;28;20185;-71
2021/03/19 01:19:16;;;;;;;14.97;11.57;;;0.60;99.90;;;;;;5024260;28;20205;-72
2021/03/19 01:21:41;;;;;;;13.07;10.63;;;0.60;99.90;;;;;;5032171;28;20179;-71
2021/03/19 01:24:07;;;;;;;12.37;10.33;;;0.60;99.90;;;;;;5032320;28;20189;-71
2021/03/19 01:26:33;;;;;;;13.73;10.50;;;0.60;99.90;;;;;;5033672;28;20178;-71
2021/03/19 01:28:59;;;;;;;13.17;10.53;;;0.70;99.90;;;;;;5033402;28;20282;-71
2021/03/19 01:31:25;;;;;;;13.03;10.43;;;0.70;99.90;;;;;;5033608;28;20171;-72
2021/03/19 01:33:50;;;;;;;13.80;10.60;;;0.70;99.90;;;;;;5032860;28;20178;-72
2021/03/19 01:36:16;;;;;;;14.63;10.67;;;0.70;99.90;;;;;;5031981;28;20272;-71
2021/03/19 01:38:42;;;;;;;12.30;10.37;;;0.70;99.90;;;;;;5032984;28;20307;-71
2021/03/19 01:41:10;;;;;;;15.37;11.37;;;0.70;99.90;;;;;;5033564;28;20216;-72
2021/03/19 01:43:56;;;;;;;13.33;10.60;;;0.70;99.90;;;;;;5033573;28;20316;-72
2021/03/19 01:46:59;;;;;;;12.87;10.13;;;0.80;99.90;;;;;;5034739;28;20645;-71
2021/03/19 01:50:02;;;;;;;12.93;10.43;;;0.80;99.90;;;;;;5034501;28;20194;-71
2021/03/19 01:53:05;;;;;;;12.30;9.57;;;0.70;99.90;;;;;;5033107;28;20261;-71
2021/03/19 01:56:08;;;;;;;12.27;10.13;;;0.60;99.90;;;;;;5033118;28;20192;-71
2021/03/19 01:59:11;;;;;;;14.47;11.00;;;0.50;99.90;;;;;;5019851;28;20660;-72
2021/03/19 02:02:14;;;;;;;12.63;10.17;;;0.40;99.90;;;;;;5031450;28;20174;-71
2021/03/19 02:05:17;;;;;;;11.10;9.87;;;0.40;99.90;;;;;;5031493;28;20173;-71
2021/03/19 02:08:20;;;;;;;13.57;10.47;;;0.30;99.90;;;;;;5032761;28;20256;-71
2021/03/19 02:11:23;;;;;;;11.57;10.37;;;0.30;99.90;;;;;;5032783;28;20207;-71
2021/03/19 02:14:26;;;;;;;18.43;10.13;;;0.30;99.90;;;;;;5032466;28;20261;-72
2021/03/19 02:17:29;;;;;;;11.37;10.10;;;0.30;99.90;;;;;;5030151;28;20182;-72
2021/03/19 02:20:32;;;;;;;11.43;10.20;;;0.40;99.90;;;;;;5032561;28;20181;-71
2021/03/19 02:23:35;;;;;;;16.60;10.53;;;0.40;99.90;;;;;;5032542;28;20699;-71
2021/03/19 02:26:39;;;;;;;14.17;10.40;;;0.40;99.90;;;;;;5032770;28;20249;-71
2021/03/19 02:29:42;;;;;;;14.93;10.53;;;0.30;99.90;;;;;;5030881;28;20198;-71
2021/03/19 02:32:13;;;;;;;11.43;10.07;;;0.20;99.90;;;;;;5018088;28;20703;-72
2021/03/19 02:34:48;;;;;;;14.30;9.70;;;0.10;99.90;;;;;;5008667;28;20179;-72
2021/03/19 02:37:21;;;;;;;12.00;10.17;;;0.10;99.90;;;;;;5023705;28;20692;-72
2021/03/19 02:39:47;;;;;;;13.97;9.97;;;0.00;99.90;;;;;;5030181;28;20198;-72
2021/03/19 02:42:15;;;;;;;17.53;10.37;;;0.00;99.90;;;;;;5032023;28;20247;-72
2021/03/19 02:44:42;;;;;;;13.03;10.27;;;0.00;99.90;;;;;;5031244;28;20276;-72
2021/03/19 02:47:09;;;;;;;14.07;9.83;;;0.00;99.90;;;;;;5032161;28;20173;-72
2021/03/19 02:49:35;;;;;;;12.90;10.97;;;0.00;99.90;;;;;;5029885;28;20199;-72
2021/03/19 02:52:00;;;;;;;13.90;10.07;;;0.00;99.90;;;;;;5032138;28;20663;-72
2021/03/19 02:54:26;;;;;;;14.57;10.20;;;0.00;99.90;;;;;;5032001;28;20174;-72
2021/03/19 02:56:52;;;;;;;13.10;10.30;;;0.00;99.90;;;;;;5030652;28;20178;-72
2021/03/19 02:59:18;;;;;;;12.27;10.97;;;-0.10;99.90;;;;;;5032900;28;20248;-71
2021/03/19 03:01:44;;;;;;;13.87;9.63;;;-0.20;99.90;;;;;;5033409;28;20307;-72
2021/03/19 03:04:10;;;;;;;19.20;10.90;;;-0.20;99.90;;;;;;5031974;28;20188;-71
2021/03/19 03:06:43;;;;;;;13.17;10.07;;;-0.30;99.90;;;;;;5031841;28;20256;-71
2021/03/19 03:09:15;;;;;;;11.50;10.23;;;-0.30;99.90;;;;;;5031815;28;20560;-72
2021/03/19 03:11:41;;;;;;;13.43;9.90;;;-0.30;99.90;;;;;;5031705;28;20176;-72
2021/03/19 03:14:11;;;;;;;11.83;9.90;;;-0.30;99.90;;;;;;5028687;28;20200;-71
2021/03/19 03:16:37;;;;;;;11.43;9.30;;;-0.30;99.90;;;;;;5027434;28;20525;-72
2021/03/19 03:19:04;;;;;;;11.90;9.57;;;-0.30;99.90;;;;;;5031758;28;20194;-71
2021/03/19 03:21:31;;;;;;;12.73;8.93;;;-0.30;99.90;;;;;;5030288;28;20353;-72
2021/03/19 03:23:57;;;;;;;13.07;10.20;;;-0.30;99.90;;;;;;5031547;28;20181;-72
2021/03/19 03:26:23;;;;;;;11.60;10.20;;;-0.30;99.90;;;;;;5029924;28;20186;-72
2021/03/19 03:28:48;;;;;;;12.00;9.97;;;-0.40;99.90;;;;;;5031432;28;20204;-72
2021/03/19 03:31:15;;;;;;;11.47;9.30;;;-0.40;99.90;;;;;;5031514;28;20185;-72
2021/03/19 03:33:40;;;;;;;11.67;9.27;;;-0.40;99.90;;;;;;5031567;28;20201;-72
2021/03/19 03:36:06;;;;;;;12.53;9.67;;;-0.40;99.90;;;;;;5031438;28;20641;-71
2021/03/19 03:38:32;;;;;;;12.67;10.23;;;-0.50;99.90;;;;;;5032060;28;20663;-71
2021/03/19 03:41:04;;;;;;;11.07;9.67;;;-0.60;99.90;;;;;;5031227;28;20177;-72
2021/03/19 03:43:30;;;;;;;12.00;9.00;;;-0.70;99.90;;;;;;5027807;28;20690;-71
2021/03/19 03:45:57;;;;;;;15.40;10.57;;;-0.70;99.90;;;;;;5031445;28;20179;-71
2021/03/19 03:48:26;;;;;;;13.80;10.27;;;-0.60;99.90;;;;;;5031432;28;20202;-71
2021/03/19 03:50:52;;;;;;;13.37;10.23;;;-0.60;99.90;;;;;;5031374;28;20177;-71
2021/03/19 03:53:19;;;;;;;13.97;10.20;;;-0.60;99.90;;;;;;5031347;28;20533;-71
2021/03/19 03:55:44;;;;;;;12.90;9.40;;;-0.60;99.90;;;;;;5030538;28;20177;-71
2021/03/19 03:58:13;;;;;;;11.73;9.97;;;-0.60;99.90;;;;;;5033874;28;20622;-72
2021/03/19 04:00:39;;;;;;;12.27;10.50;;;-0.50;99.90;;;;;;5035273;28;20173;-71
2021/03/19 04:03:06;;;;;;;10.70;9.67;;;-0.50;99.90;;;;;;5024292;28;20195;-71
2021/03/19 04:05:35;;;;;;;17.37;10.87;;;-0.50;99.90;;;;;;5035218;28;20674;-71
2021/03/19 04:08:01;;;;;;;12.20;10.73;;;-0.40;99.90;;;;;;5034991;28;20212;-72
2021/03/19 04:10:27;;;;;;;14.50;10.60;;;-0.40;99.90;;;;;;5033725;28;20290;-71
2021/03/19 04:12:54;;;;;;;12.53;10.27;;;-0.40;99.90;;;;;;5025234;28;20181;-71
2021/03/19 04:15:21;;;;;;;12.53;10.77;;;-0.40;99.90;;;;;;5026399;28;20201;-71
2021/03/19 04:17:48;;;;;;;11.33;9.97;;;-0.30;99.90;;;;;;5036427;28;20699;-72
2021/03/19 04:20:16;;;;;;;12.30;10.17;;;-0.30;99.90;;;;;;5036293;28;20647;-71
2021/03/19 04:22:41;;;;;;;13.30;10.77;;;-0.40;99.90;;;;;;5036001;28;20198;-72
2021/03/19 04:25:09;;;;;;;15.10;11.00;;;-0.40;99.90;;;;;;5036282;28;20179;-72
2021/03/19 04:27:42;;;;;;;16.30;10.93;;;-0.40;99.90;;;;;;5034850;28;20294;-71
2021/03/19 04:30:08;;;;;;;12.97;10.10;;;-0.40;99.90;;;;;;5036163;28;20659;-71
2021/03/19 04:32:34;;;;;;;15.00;12.17;;;-0.50;99.90;;;;;;5036131;28;20185;-71
2021/03/19 04:34:59;;;;;;;12.73;10.27;;;-0.50;99.90;;;;;;5036334;28;20228;-72
2021/03/19 04:37:26;;;;;;;12.90;10.53;;;-0.50;99.90;;;;;;5035913;28;20181;-72
2021/03/19 04:39:51;;;;;;;12.60;10.00;;;-0.50;99.90;;;;;;5035808;28;20198;-71
2021/03/19 04:42:17;;;;;;;15.27;10.60;;;-0.50;99.90;;;;;;5003315;28;20216;-72
2021/03/19 04:44:46;;;;;;;16.07;10.57;;;-0.50;99.90;;;;;;5008464;28;20558;-71
2021/03/19 04:47:13;;;;;;;12.60;9.80;;;-0.60;99.90;;;;;;5036005;28;20298;-71
2021/03/19 04:49:39;;;;;;;14.67;10.70;;;-0.60;99.90;;;;;;5035759;28;20199;-71
2021/03/19 04:52:06;;;;;;;16.37;11.67;;;-0.70;99.90;;;;;;5035828;28;20181;-71
2021/03/19 04:54:32;;;;;;;15.57;10.80;;;-0.80;99.90;;;;;;5035959;28;20182;-71
2021/03/19 04:56:58;;;;;;;16.20;11.33;;;-0.90;99.90;;;;;;5030920;28;20643;-71
2021/03/19 04:59:24;;;;;;;17.60;11.80;;;-1.00;99.90;;;;;;5035503;28;20204;-72
2021/03/19 05:01:53;;;;;;;19.63;11.37;;;-1.10;99.90;;;;;;5010855;28;20185;-71
2021/03/19 05:04:21;;;;;;;19.87;11.57;;;-1.10;99.90;;;;;;5015089;28;20264;-71
2021/03/19 05:06:49;;;;;;;19.77;11.77;;;-1.00;99.90;;;;;;5008431;28;20185;-71
2021/03/19 05:09:15;;;;;;;15.53;10.97;;;-1.00;99.90;;;;;;5023909;28;20194;-71
2021/03/19 05:11:41;;;;;;;16.33;10.83;;;-1.00;99.90;;;;;;5034282;28;20180;-71
2021/03/19 05:14:07;;;;;;;17.80;11.20;;;-1.00;99.90;;;;;;5031389;28;20179;-71
2021/03/19 05:16:33;;;;;;;19.17;12.70;;;-1.00;99.90;;;;;;5029433;28;20174;-71
2021/03/19 05:18:59;;;;;;;16.67;11.27;;;-1.00;99.90;;;;;;5032461;28;20201;-71
2021/03/19 05:21:24;;;;;;;16.53;12.43;;;-1.00;99.90;;;;;;5028275;28;20165;-71
2021/03/19 05:23:50;;;;;;;27.30;15.67;;;-1.00;99.90;;;;;;5035666;28;20284;-71
2021/03/19 05:26:16;;;;;;;173.07;52.80;;;-1.10;99.90;;;;;;5035163;28;20259;-71
2021/03/19 05:28:42;;;;;;;31.13;15.70;;;-1.20;99.90;;;;;;5032019;28;20217;-71
2021/03/19 05:31:08;;;;;;;16.33;11.60;;;-1.20;99.90;;;;;;4995404;28;20225;-71
2021/03/19 05:33:46;;;;;;;40.77;19.70;;;-1.20;99.90;;;;;;4998886;28;20173;-71
2021/03/19 05:36:14;;;;;;;106.00;39.20;;;-1.30;99.90;;;;;;5029069;28;20555;-71
2021/03/19 05:38:40;;;;;;;26.87;12.40;;;-1.30;99.90;;;;;;5051110;23;20232;-73
2021/03/19 05:41:07;;;;;;;15.70;11.00;;;-1.20;99.90;;;;;;5052156;28;20227;-74
2021/03/19 05:43:40;;;;;;;16.17;10.63;;;-1.20;99.90;;;;;;5054812;28;20197;-74
2021/03/19 05:46:10;;;;;;;36.93;20.50;;;-1.20;99.90;;;;;;5055051;28;20184;-73
2021/03/19 05:48:54;;;;;;;17.80;12.90;;;-1.30;99.90;;;;;;5053411;28;20200;-74
2021/03/19 05:51:39;;;;;;;19.93;13.60;;;-1.30;99.90;;;;;;5033402;28;20177;-74
2021/03/19 05:54:24;;;;;;;20.90;13.07;;;-1.20;99.90;;;;;;5034104;28;20183;-74
2021/03/19 05:57:08;;;;;;;15.87;12.17;;;-1.10;99.90;;;;;;5023656;28;20175;-73
2021/03/19 05:59:37;;;;;;;17.43;11.77;;;-1.00;99.90;;;;;;5034740;28;20280;-73
2021/03/19 06:02:24;;;;;;;13.23;10.53;;;-1.00;99.90;;;;;;5034430;28;20203;-74
2021/03/19 06:05:11;;;;;;;14.43;10.37;;;-0.90;99.90;;;;;;5033544;28;20267;-74
2021/03/19 06:07:46;;;;;;;13.83;10.17;;;-0.80;99.90;;;;;;5034663;28;20196;-73
2021/03/19 06:10:19;;;;;;;13.40;10.13;;;-0.70;99.90;;;;;;5034661;28;20212;-73
2021/03/19 06:12:50;;;;;;;14.30;10.17;;;-0.70;99.90;;;;;;5034903;28;20239;-73
2021/03/19 06:15:32;;;;;;;14.47;9.87;;;-0.60;99.90;;;;;;5033172;28;20176;-74
2021/03/19 06:18:00;;;;;;;12.30;10.10;;;-0.40;99.90;;;;;;5032917;28;20180;-74
2021/03/19 06:20:26;;;;;;;17.27;11.10;;;-0.50;99.90;;;;;;5033923;28;20176;-74
2021/03/19 06:23:10;;;;;;;14.47;9.90;;;-0.60;99.90;;;;;;5034184;28;20201;-73
2021/03/19 06:25:56;;;;;;;11.03;9.83;;;-0.40;99.90;;;;;;5034272;28;20222;-73
2021/03/19 06:28:40;;;;;;;18.67;10.20;;;-0.50;99.90;;;;;;5033925;28;20197;-75
2021/03/19 06:31:32;;;;;;;13.03;10.57;;;-0.50;99.90;;;;;;5034682;28;20197;-74
2021/03/19 06:34:06;;;;;;;11.50;9.43;;;-0.40;99.90;;;;;;5036147;28;20256;-74
2021/03/19 06:36:33;;;;;;;11.63;10.20;;;-0.40;99.90;;;;;;5035729;28;20246;-73
2021/03/19 06:39:19;;;;;;;11.53;10.17;;;-0.40;99.90;;;;;;5036623;28;20303;-74
2021/03/19 06:42:14;;;;;;;15.47;10.63;;;-0.30;99.90;;;;;;5034757;28;20166;-73
2021/03/19 06:44:40;;;;;;;12.43;10.00;;;-0.20;99.90;;;;;;5033983;28;20176;-74
2021/03/19 06:47:14;;;;;;;14.53;10.00;;;-0.10;99.90;;;;;;5032465;28;20216;-74
2021/03/19 06:49:51;;;;;;;11.00;9.43;;;-0.10;99.90;;;;;;5033564;28;20231;-74
2021/03/19 06:52:26;;;;;;;13.10;10.43;;;-0.10;99.90;;;;;;5033480;28;20660;-73
2021/03/19 06:55:00;;;;;;;11.07;9.67;;;0.00;99.90;;;;;;5032429;28;20180;-73
2021/03/19 06:57:29;;;;;;;10.90;9.80;;;0.00;99.90;;;;;;5033833;28;20593;-73
2021/03/19 07:00:01;;;;;;;13.33;9.83;;;0.00;99.90;;;;;;5033377;28;20193;-72
2021/03/19 07:02:45;;;;;;;13.67;10.03;;;0.00;99.90;;;;;;5033304;28;20194;-73
2021/03/19 07:05:41;;;;;;;10.67;9.47;;;0.10;99.90;;;;;;5033395;28;20173;-73
2021/03/19 07:08:42;;;;;;;12.17;9.93;;;0.10;99.90;;;;;;5033372;28;20177;-74
2021/03/19 07:11:50;;;;;;;14.00;10.93;;;0.20;99.90;;;;;;5033467;28;20651;-73
2021/03/19 07:14:40;;;;;;;12.60;11.00;;;0.30;99.90;;;;;;5019320;28;20194;-73
2021/03/19 07:17:25;;;;;;;22.07;10.83;;;0.30;99.90;;;;;;5033196;28;20183;-73
2021/03/19 07:20:14;;;;;;;12.77;11.03;;;0.30;99.90;;;;;;5033296;28;20193;-74
2021/03/19 07:22:57;;;;;;;16.60;12.67;;;0.20;99.90;;;;;;5033299;28;20194;-73
2021/03/19 07:25:43;;;;;;;16.80;12.40;;;0.30;99.90;;;;;;5033274;28;20169;-74
2021/03/19 07:28:33;;;;;;;14.87;11.80;;;0.50;99.90;;;;;;5030324;28;20651;-74
2021/03/19 07:31:06;;;;;;;16.30;12.67;;;0.60;99.90;;;;;;4990706;28;20595;-72
2021/03/19 07:33:49;;;;;;;19.73;14.37;;;0.70;99.90;;;;;;5040462;28;20265;-74
2021/03/19 07:37:03;;;;;;;80.27;31.87;;;0.80;99.90;;;;;;5038638;28;20174;-72
2021/03/19 07:39:37;;;;;;;32.27;18.77;;;0.90;99.90;;;;;;5035735;28;20286;-72
2021/03/19 07:42:21;;;;;;;97.97;33.83;;;1.00;99.90;;;;;;5039845;28;20198;-73
2021/03/19 07:44:59;;;;;;;70.07;35.80;;;1.00;99.90;;;;;;5039596;28;20692;-73
2021/03/19 07:47:40;;;;;;;27.93;15.43;;;1.10;99.90;;;;;;5036974;28;20194;-72
2021/03/19 07:50:24;;;;;;;22.03;15.50;;;1.20;99.90;;;;;;5026973;28;20252;-73
2021/03/19 07:53:09;;;;;;;22.30;15.10;;;1.20;99.90;;;;;;5039527;28;20566;-73
2021/03/19 07:55:57;;;;;;;29.10;18.53;;;1.30;99.90;;;;;;5038407;28;20178;-76
2021/03/19 07:58:54;;;;;;;29.27;19.10;;;1.40;99.90;;;;;;5037855;28;20198;-72
2021/03/19 08:01:34;;;;;;;43.97;25.90;;;1.50;99.90;;;;;;5038264;28;20228;-72
2021/03/19 08:04:34;;;;;;;44.00;25.90;;;1.50;99.90;;;;;;5038110;28;20201;-73
2021/03/19 08:07:26;;;;;;;27.67;19.20;;;1.50;99.90;;;;;;5038186;28;20228;-72
2021/03/19 08:10:09;;;;;;;30.50;17.27;;;1.60;99.90;;;;;;5033589;28;20293;-73
2021/03/19 08:12:49;;;;;;;26.67;17.57;;;1.70;99.90;;;;;;5035893;28;20182;-72
2021/03/19 08:15:46;;;;;;;38.30;24.40;;;1.90;99.90;;;;;;5039355;28;20660;-72
2021/03/19 08:18:40;;;;;;;27.43;17.23;;;1.90;99.90;;;;;;5039131;28;20185;-72
2021/03/19 08:21:28;;;;;;;32.20;18.47;;;1.80;99.90;;;;;;5038884;28;20714;-73
2021/03/19 08:24:22;;;;;;;30.13;17.70;;;1.80;99.90;;;;;;5039056;28;20742;-73
2021/03/19 08:27:12;;;;;;;24.73;17.07;;;1.80;99.90;;;;;;5039245;28;20193;-72
2021/03/19 08:29:45;;;;;;;23.53;16.40;;;1.90;99.90;;;;;;5039466;28;20222;-72
2021/03/19 08:32:28;;;;;;;26.27;16.77;;;1.80;99.90;;;;;;5038087;28;20570;-72
2021/03/19 08:35:31;;;;;;;28.37;16.73;;;1.90;99.90;;;;;;5039613;28;20537;-72
2021/03/19 08:38:03;;;;;;;28.60;17.33;;;2.00;99.90;;;;;;5039109;28;20190;-72
2021/03/19 08:40:53;;;;;;;25.60;17.07;;;2.10;99.90;;;;;;5039037;28;20276;-72
2021/03/19 08:43:41;;;;;;;25.37;15.60;;;2.20;99.90;;;;;;5034487;28;20209;-73
2021/03/19 08:46:20;;;;;;;26.00;16.03;;;2.40;99.90;;;;;;5035881;28;20215;-72
2021/03/19 08:48:57;;;;;;;25.53;16.77;;;2.30;99.90;;;;;;5036024;28;20200;-73
2021/03/19 08:51:26;;;;;;;27.17;17.43;;;2.50;99.90;;;;;;5035887;28;20174;-74
2021/03/19 08:54:31;;;;;;;26.93;17.60;;;2.30;99.90;;;;;;5035871;28;20171;-73
2021/03/19 08:57:05;;;;;;;24.57;16.87;;;2.40;99.90;;;;;;5015236;28;20194;-73
2021/03/19 08:59:31;;;;;;;28.33;17.27;;;2.40;99.90;;;;;;5035753;28;20194;-73
2021/03/19 09:01:59;;;;;;;27.03;16.63;;;2.50;99.90;;;;;;5035720;28;20185;-73
2021/03/19 09:04:50;;;;;;;21.57;16.20;;;2.60;99.90;;;;;;5036110;28;20183;-73
2021/03/19 09:07:37;;;;;;;28.10;17.60;;;2.60;99.90;;;;;;5035806;28;20330;-73
2021/03/19 09:10:18;;;;;;;24.07;17.10;;;2.80;99.90;;;;;;5035616;28;20200;-73
2021/03/19 09:12:56;;;;;;;25.20;17.07;;;2.90;99.90;;;;;;5035866;28;20210;-74
2021/03/19 09:15:22;;;;;;;23.00;15.83;;;3.00;99.90;;;;;;5035279;28;20174;-73
2021/03/19 09:17:50;;;;;;;20.63;15.27;;;3.00;99.90;;;;;;5034265;28;20274;-73
2021/03/19 09:20:36;;;;;;;24.23;15.97;;;3.10;99.90;;;;;;5035011;28;20579;-74
2021/03/19 09:23:11;;;;;;;24.13;16.17;;;3.20;99.90;;;;;;5035310;28;20195;-73
2021/03/19 09:25:42;;;;;;;24.33;15.30;;;3.20;99.90;;;;;;5035119;28;20172;-72
2021/03/19 09:28:23;;;;;;;25.63;16.53;;;3.30;99.90;;;;;;5032630;28;20179;-74
2021/03/19 09:30:56;;;;;;;21.57;15.83;;;3.40;99.90;;;;;;5030364;28;20177;-74
2021/03/19 09:33:43;;;;;;;18.43;15.13;;;3.50;99.90;;;;;;5033936;28;20268;-74
2021/03/19 09:36:48;;;;;;;17.93;13.87;;;3.60;99.90;;;;;;5034995;28;20703;-73
2021/03/19 09:39:50;;;;;;;20.40;14.20;;;3.70;99.90;;;;;;5019158;28;20227;-73
2021/03/19 09:42:18;;;;;;;20.17;15.13;;;3.80;99.90;;;;;;5035134;28;20209;-74
2021/03/19 09:44:59;;;;;;;25.07;15.70;;;3.80;99.90;;;;;;5034958;28;20597;-73
2021/03/19 09:47:32;;;;;;;20.80;14.53;;;3.80;99.90;;;;;;5035076;28;20170;-73
2021/03/19 09:50:12;;;;;;;23.90;14.83;;;3.70;99.90;;;;;;5034780;28;20707;-73
2021/03/19 09:52:39;;;;;;;19.00;14.80;;;3.70;99.90;;;;;;5034824;28;20649;-73
2021/03/19 09:55:19;;;;;;;17.83;13.73;;;3.70;99.90;;;;;;5032523;28;20270;-73
2021/03/19 09:57:46;;;;;;;18.53;11.83;;;3.90;99.90;;;;;;5028923;28;20180;-74
2021/03/19 10:00:19;;;;;;;13.60;11.77;;;4.00;99.90;;;;;;5034639;28;20203;-73
2021/03/19 10:02:45;;;;;;;17.93;12.17;;;4.10;99.90;;;;;;5033151;28;20219;-74
2021/03/19 10:05:20;;;;;;;20.37;13.47;;;4.10;99.90;;;;;;5034598;28;20251;-76
2021/03/19 10:08:35;;;;;;;29.03;19.10;;;4.10;99.90;;;;;;5034818;28;20178;-74
2021/03/19 10:11:14;;;;;;;13.73;10.37;;;4.30;99.90;;;;;;5034145;28;20667;-74
2021/03/19 10:13:39;;;;;;;16.27;11.60;;;4.20;99.90;;;;;;5032948;28;20206;-74
2021/03/19 10:16:06;;;;;;;13.83;11.17;;;4.10;99.90;;;;;;5034151;28;20214;-74
2021/03/19 10:18:39;;;;;;;14.60;10.43;;;4.00;99.90;;;;;;5034008;28;20199;-74
2021/03/19 10:21:09;;;;;;;15.00;9.57;;;4.00;99.90;;;;;;5034179;28;20176;-74
2021/03/19 10:23:40;;;;;;;11.57;10.00;;;4.00;99.90;;;;;;5032694;28;20231;-74
2021/03/19 10:26:25;;;;;;;13.90;11.27;;;4.00;99.90;;;;;;5032865;28;20661;-74
2021/03/19 10:29:17;;;;;;;13.17;11.07;;;4.30;99.90;;;;;;5033891;28;20567;-71
2021/03/19 10:32:06;;;;;;;12.70;9.77;;;4.10;99.90;;;;;;5033994;28;20246;-73
2021/03/19 10:34:42;;;;;;;15.43;13.83;;;4.10;99.90;;;;;;5032007;28;20179;-74
2021/03/19 10:37:07;;;;;;;12.67;10.13;;;4.10;99.90;;;;;;5032624;28;20296;-74
2021/03/19 10:39:43;;;;;;;14.13;10.40;;;4.20;99.90;;;;;;5033705;28;20730;-74
2021/03/19 10:42:15;;;;;;;14.13;10.90;;;4.10;99.90;;;;;;5033795;28;20559;-74
2021/03/19 10:44:44;;;;;;;13.73;10.70;;;4.20;99.90;;;;;;5033866;28;20176;-74
2021/03/19 10:47:19;;;;;;;11.67;10.10;;;4.30;99.90;;;;;;5032708;28;20201;-73
2021/03/19 10:49:52;;;;;;;13.10;10.27;;;4.50;99.90;;;;;;5032676;28;20206;-74
2021/03/19 10:52:32;;;;;;;11.10;9.43;;;4.50;99.90;;;;;;5033506;28;20176;-73
2021/03/19 10:55:13;;;;;;;10.13;9.13;;;4.70;99.90;;;;;;5033726;28;20178;-73
2021/03/19 10:57:41;;;;;;;9.80;8.80;;;4.90;99.90;;;;;;5033545;28;20259;-74
2021/03/19 11:00:35;;;;;;;12.23;8.73;;;5.00;99.90;;;;;;5034068;28;20204;-73
2021/03/19 11:03:04;;;;;;;7.90;7.10;;;5.10;99.90;;;;;;5036502;28;20287;-75
2021/03/19 11:05:30;;;;;;;9.93;7.70;;;5.30;99.90;;;;;;5033787;28;20180;-73
2021/03/19 11:07:56;;;;;;;9.33;8.43;;;5.50;99.90;;;;;;5033582;28;20580;-74
2021/03/19 11:10:48;;;;;;;10.87;8.70;;;5.50;99.90;;;;;;5033294;28;20227;-74
2021/03/19 11:13:13;;;;;;;10.23;8.80;;;5.50;99.90;;;;;;5033334;28;20180;-74
2021/03/19 11:15:43;;;;;;;17.73;11.33;;;5.60;99.90;;;;;;5033314;28;20178;-74
2021/03/19 11:18:24;;;;;;;13.50;10.03;;;5.40;99.90;;;;;;5033246;28;20176;-74
2021/03/19 11:21:02;;;;;;;23.90;12.30;;;5.40;99.90;;;;;;5032209;28;20180;-74
2021/03/19 11:23:41;;;;;;;22.37;10.80;;;5.10;99.90;;;;;;5029038;28;20534;-74
2021/03/19 11:26:34;;;;;;;13.37;9.37;;;5.10;99.90;;;;;;5032234;28;20521;-74
2021/03/19 11:29:18;;;;;;;12.40;9.27;;;4.80;99.90;;;;;;5031503;28;20648;-74
2021/03/19 11:32:04;;;;;;;8.33;7.47;;;4.70;99.90;;;;;;5033737;28;20176;-74
2021/03/19 11:34:50;;;;;;;11.70;8.70;;;4.70;99.90;;;;;;5033209;28;20182;-74
2021/03/19 11:37:19;;;;;;;20.63;11.77;;;4.70;99.90;;;;;;5032156;28;20614;-75
2021/03/19 11:40:14;;;;;;;12.03;9.60;;;4.70;99.90;;;;;;5047923;22;20219;-74
2021/03/19 11:42:46;;;;;;;42.13;19.83;;;4.70;99.90;;;;;;5032998;28;20231;-74
2021/03/19 11:45:20;;;;;;;13.70;10.70;;;4.70;99.90;;;;;;5031807;28;20178;-73
2021/03/19 11:47:58;;;;;;;43.10;19.47;;;4.80;99.90;;;;;;5022702;28;20187;-73
2021/03/19 11:50:25;;;;;;;12.70;9.60;;;5.00;99.90;;;;;;5011130;28;20287;-72
2021/03/19 11:52:54;;;;;;;14.00;9.97;;;4.90;99.90;;;;;;5027345;28;20578;-72
2021/03/19 11:55:32;;;;;;;11.17;9.57;;;5.00;99.90;;;;;;5032918;28;20346;-71
2021/03/19 11:57:58;;;;;;;9.93;8.93;;;5.20;99.90;;;;;;5009619;28;20191;-69
2021/03/19 12:00:28;;;;;;;62.33;21.13;;;5.30;99.90;;;;;;5031520;28;20200;-70
2021/03/19 12:03:01;;;;;;;25.00;13.13;;;5.40;99.90;;;;;;5031455;28;20211;-69
2021/03/19 12:05:31;;;;;;;21.13;12.03;;;5.60;99.90;;;;;;5029036;28;20174;-71
2021/03/19 12:07:58;;;;;;;8.40;7.50;;;5.40;99.90;;;;;;5026850;28;20177;-71
2021/03/19 12:10:28;;;;;;;12.73;10.33;;;5.60;99.90;;;;;;5032796;28;20196;-70
2021/03/19 12:12:59;;;;;;;8.07;7.23;;;5.50;99.90;;;;;;5032872;28;20215;-70
2021/03/19 12:15:26;;;;;;;8.70;7.87;;;5.80;99.90;;;;;;5016804;28;20233;-71
2021/03/19 12:17:52;;;;;;;7.90;7.10;;;5.90;99.90;;;;;;5021512;28;20185;-71
2021/03/19 12:20:18;;;;;;;8.03;6.80;;;6.10;99.90;;;;;;5016771;28;20204;-71
2021/03/19 12:22:46;;;;;;;15.30;8.57;;;6.40;99.90;;;;;;5026112;28;20293;-71
2021/03/19 12:25:19;;;;;;;4.83;4.33;;;6.40;99.90;;;;;;5026725;28;20554;-70
2021/03/19 12:27:46;;;;;;;81.83;21.53;;;6.10;99.90;;;;;;5034848;28;20197;-70
2021/03/19 12:30:14;;;;;;;25.40;9.27;;;5.80;99.90;;;;;;5036148;28;20716;-72
2021/03/19 12:32:40;;;;;;;8.43;7.63;;;5.60;99.90;;;;;;5032294;28;20188;-70
2021/03/19 12:35:06;;;;;;;56.30;17.73;;;5.60;99.90;;;;;;5019137;28;20556;-71
2021/03/19 12:37:32;;;;;;;9.17;8.27;;;5.50;99.90;;;;;;5030650;28;20184;-71
2021/03/19 12:39:58;;;;;;;10.87;8.00;;;5.70;99.90;;;;;;5025254;28;20228;-71
2021/03/19 12:42:24;;;;;;;8.63;7.83;;;5.90;99.90;;;;;;5035929;28;20210;-71
2021/03/19 12:44:50;;;;;;;9.10;8.20;;;5.90;99.90;;;;;;5031171;28;20177;-72
2021/03/19 12:47:15;;;;;;;439.67;79.13;;;5.90;99.90;;;;;;5019682;28;20182;-71
2021/03/19 12:49:41;;;;;;;61.27;30.90;;;5.80;99.90;;;;;;5035529;28;20705;-72
2021/03/19 12:52:07;;;;;;;8.07;7.23;;;5.60;99.90;;;;;;5035824;28;20179;-70
2021/03/19 12:54:33;;;;;;;16.70;12.77;;;5.60;99.90;;;;;;5036099;28;20195;-72
2021/03/19 12:56:58;;;;;;;8.77;7.87;;;5.60;99.90;;;;;;5035841;28;20643;-71
2021/03/19 12:59:24;;;;;;;9.00;7.57;;;5.50;99.90;;;;;;5023886;28;20206;-71
2021/03/19 13:01:50;;;;;;;7.27;6.30;;;5.50;99.90;;;;;;5007734;28;20184;-71
2021/03/19 13:04:16;;;;;;;7.10;6.00;;;5.60;99.90;;;;;;5010734;28;20578;-71
2021/03/19 13:06:42;;;;;;;5.70;5.20;;;5.90;99.90;;;;;;5001092;28;20528;-70
2021/03/19 13:09:12;;;;;;;6.33;5.73;;;6.00;99.90;;;;;;5015056;28;20237;-71
2021/03/19 13:11:38;;;;;;;6.60;5.03;;;6.30;99.90;;;;;;5013504;28;20183;-71
2021/03/19 13:14:04;;;;;;;5.47;4.90;;;6.50;99.90;;;;;;5008091;28;20195;-70
2021/03/19 13:16:30;;;;;;;5.00;4.60;;;6.40;99.90;;;;;;5009220;28;20245;-71